sensor_id;sensor_type;location;lat;lon;timestamp;P1;durP1;ratioP1;P2;durP2;ratioP2
65998;SDS011;52766;56.008;37.440;2022-11-03T00:02:05;1.63;;;1.08;;
65998;SDS011;52766;56.008;37.440;2022-11-03T00:04:37;2.88;;;1.05;;
65998;SDS011;52766;56.008;37.440;2022-11-03T00:07:02;4.63;;;1.85;;
65998;SDS011;52766;56.008;37.440;2022-11-03T00:09:29;2.33;;;1.15;;
65998;SDS011;52766;56.008;37.440;2022-11-03T00:11:59;2.80;;;1.23;;
65998;SDS011;52766;56.008;37.440;2022-11-03T00:14:26;1.80;;;1.05;;
65998;SDS011;52766;56.008;37.440;2022-11-03T00:16:52;1.42;;;1.00;;
65998;SDS011;52766;56.008;37.440;2022-11-03T00:19:20;1.58;;;0.98;;
65998;SDS011;52766;56.008;37.440;2022-11-03T00:21:47;2.05;;;1.08;;
65998;SDS011;52766;56.008;37.440;2022-11-03T00:24:17;1.77;;;1.00;;
65998;SDS011;52766;56.008;37.440;2022-11-03T00:26:44;2.95;;;1.23;;
65998;SDS011;52766;56.008;37.440;2022-11-03T00:29:12;3.03;;;1.20;;
65998;SDS011;52766;56.008;37.440;2022-11-03T00:31:40;1.70;;;1.10;;
65998;SDS011;52766;56.008;37.440;2022-11-03T00:34:08;1.95;;;1.13;;
65998;SDS011;52766;56.008;37.440;2022-11-03T00:36:42;1.95;;;1.30;;
65998;SDS011;52766;56.008;37.440;2022-11-03T00:39:08;1.88;;;1.15;;
65998;SDS011;52766;56.008;37.440;2022-11-03T00:41:37;2.17;;;1.25;;
65998;SDS011;52766;56.008;37.440;2022-11-03T00:44:04;4.20;;;1.20;;
65998;SDS011;52766;56.008;37.440;2022-11-03T00:46:31;2.22;;;1.20;;
65998;SDS011;52766;56.008;37.440;2022-11-03T00:48:59;1.67;;;1.08;;
65998;SDS011;52766;56.008;37.440;2022-11-03T00:51:26;2.22;;;1.10;;
65998;SDS011;52766;56.008;37.440;2022-11-03T00:53:59;1.10;;;0.90;;
65998;SDS011;52766;56.008;37.440;2022-11-03T00:56:26;1.05;;;0.90;;
65998;SDS011;52766;56.008;37.440;2022-11-03T00:59:03;0.82;;;0.82;;
65998;SDS011;52766;56.008;37.440;2022-11-03T01:01:31;1.27;;;1.00;;
65998;SDS011;52766;56.008;37.440;2022-11-03T01:04:06;1.70;;;1.08;;
65998;SDS011;52766;56.008;37.440;2022-11-03T01:07:09;2.33;;;1.13;;
65998;SDS011;52766;56.008;37.440;2022-11-03T01:09:38;0.55;;;0.50;;
65998;SDS011;52766;56.008;37.440;2022-11-03T01:14:47;2.05;;;1.05;;
65998;SDS011;52766;56.008;37.440;2022-11-03T01:17:22;1.65;;;0.95;;
65998;SDS011;52766;56.008;37.440;2022-11-03T01:19:49;1.10;;;0.70;;
65998;SDS011;52766;56.008;37.440;2022-11-03T01:22:15;1.42;;;0.95;;
65998;SDS011;52766;56.008;37.440;2022-11-03T01:24:42;1.10;;;0.80;;
65998;SDS011;52766;56.008;37.440;2022-11-03T01:27:10;1.85;;;0.80;;
65998;SDS011;52766;56.008;37.440;2022-11-03T01:29:39;0.70;;;0.63;;
65998;SDS011;52766;56.008;37.440;2022-11-03T01:32:06;1.05;;;0.80;;
65998;SDS011;52766;56.008;37.440;2022-11-03T01:34:32;2.10;;;1.10;;
65998;SDS011;52766;56.008;37.440;2022-11-03T01:36:58;1.73;;;0.90;;
65998;SDS011;52766;56.008;37.440;2022-11-03T01:39:24;0.93;;;0.47;;
65998;SDS011;52766;56.008;37.440;2022-11-03T01:41:51;0.50;;;0.50;;
65998;SDS011;52766;56.008;37.440;2022-11-03T01:46:50;1.13;;;0.93;;
65998;SDS011;52766;56.008;37.440;2022-11-03T01:52:19;2.00;;;0.90;;
65998;SDS011;52766;56.008;37.440;2022-11-03T01:54:51;3.35;;;1.20;;
65998;SDS011;52766;56.008;37.440;2022-11-03T01:57:21;2.75;;;1.10;;
65998;SDS011;52766;56.008;37.440;2022-11-03T01:59:50;1.77;;;1.00;;
65998;SDS011;52766;56.008;37.440;2022-11-03T02:02:23;3.28;;;1.30;;
65998;SDS011;52766;56.008;37.440;2022-11-03T02:04:50;1.23;;;0.85;;
65998;SDS011;52766;56.008;37.440;2022-11-03T02:07:36;2.55;;;1.23;;
65998;SDS011;52766;56.008;37.440;2022-11-03T02:10:05;1.75;;;0.90;;
65998;SDS011;52766;56.008;37.440;2022-11-03T02:12:31;1.67;;;0.55;;
65998;SDS011;52766;56.008;37.440;2022-11-03T02:14:59;2.22;;;1.20;;
65998;SDS011;52766;56.008;37.440;2022-11-03T02:17:29;1.85;;;0.80;;
65998;SDS011;52766;56.008;37.440;2022-11-03T02:19:58;1.88;;;1.02;;
65998;SDS011;52766;56.008;37.440;2022-11-03T02:27:36;1.27;;;1.13;;
65998;SDS011;52766;56.008;37.440;2022-11-03T02:30:02;1.42;;;0.93;;
65998;SDS011;52766;56.008;37.440;2022-11-03T02:32:39;2.17;;;1.10;;
65998;SDS011;52766;56.008;37.440;2022-11-03T02:37:59;0.75;;;0.50;;
65998;SDS011;52766;56.008;37.440;2022-11-03T02:40:30;1.63;;;0.65;;
65998;SDS011;52766;56.008;37.440;2022-11-03T02:42:58;0.77;;;0.73;;
65998;SDS011;52766;56.008;37.440;2022-11-03T02:45:25;1.13;;;0.75;;
65998;SDS011;52766;56.008;37.440;2022-11-03T02:47:53;1.55;;;0.60;;
65998;SDS011;52766;56.008;37.440;2022-11-03T02:50:20;1.65;;;0.80;;
65998;SDS011;52766;56.008;37.440;2022-11-03T02:52:51;2.50;;;1.00;;
65998;SDS011;52766;56.008;37.440;2022-11-03T02:56:04;0.95;;;0.82;;
65998;SDS011;52766;56.008;37.440;2022-11-03T02:58:47;1.55;;;0.90;;
65998;SDS011;52766;56.008;37.440;2022-11-03T03:01:18;0.93;;;0.63;;
65998;SDS011;52766;56.008;37.440;2022-11-03T03:04:29;0.60;;;0.60;;
65998;SDS011;52766;56.008;37.440;2022-11-03T03:06:37;1.80;;;1.05;;
65998;SDS011;52766;56.008;37.440;2022-11-03T03:09:07;0.77;;;0.57;;
65998;SDS011;52766;56.008;37.440;2022-11-03T03:11:37;0.80;;;0.70;;
65998;SDS011;52766;56.008;37.440;2022-11-03T03:14:14;2.30;;;1.02;;
65998;SDS011;52766;56.008;37.440;2022-11-03T03:16:46;0.70;;;0.60;;
65998;SDS011;52766;56.008;37.440;2022-11-03T03:19:23;1.02;;;0.63;;
65998;SDS011;52766;56.008;37.440;2022-11-03T03:22:12;0.95;;;0.60;;
65998;SDS011;52766;56.008;37.440;2022-11-03T03:25:07;3.97;;;1.67;;
65998;SDS011;52766;56.008;37.440;2022-11-03T03:27:42;1.95;;;0.80;;
65998;SDS011;52766;56.008;37.440;2022-11-03T03:30:12;2.25;;;1.08;;
65998;SDS011;52766;56.008;37.440;2022-11-03T03:32:39;1.40;;;0.90;;
65998;SDS011;52766;56.008;37.440;2022-11-03T03:35:13;2.22;;;0.90;;
65998;SDS011;52766;56.008;37.440;2022-11-03T03:37:48;2.15;;;0.70;;
65998;SDS011;52766;56.008;37.440;2022-11-03T03:40:20;1.60;;;0.70;;
65998;SDS011;52766;56.008;37.440;2022-11-03T03:42:51;2.53;;;0.80;;
65998;SDS011;52766;56.008;37.440;2022-11-03T03:45:18;0.75;;;0.70;;
65998;SDS011;52766;56.008;37.440;2022-11-03T03:47:45;0.63;;;0.63;;
65998;SDS011;52766;56.008;37.440;2022-11-03T03:50:12;2.10;;;1.17;;
65998;SDS011;52766;56.008;37.440;2022-11-03T03:52:44;2.10;;;0.93;;
65998;SDS011;52766;56.008;37.440;2022-11-03T03:55:14;2.00;;;1.00;;
65998;SDS011;52766;56.008;37.440;2022-11-03T03:57:43;0.50;;;0.43;;
65998;SDS011;52766;56.008;37.440;2022-11-03T04:00:14;0.85;;;0.60;;
65998;SDS011;52766;56.008;37.440;2022-11-03T04:02:41;0.85;;;0.60;;
65998;SDS011;52766;56.008;37.440;2022-11-03T04:05:13;0.85;;;0.40;;
65998;SDS011;52766;56.008;37.440;2022-11-03T04:07:39;1.38;;;1.00;;
65998;SDS011;52766;56.008;37.440;2022-11-03T04:10:12;1.02;;;0.57;;
65998;SDS011;52766;56.008;37.440;2022-11-03T04:12:42;0.63;;;0.32;;
65998;SDS011;52766;56.008;37.440;2022-11-03T04:15:50;1.45;;;0.95;;
65998;SDS011;52766;56.008;37.440;2022-11-03T04:18:19;1.10;;;0.50;;
65998;SDS011;52766;56.008;37.440;2022-11-03T04:21:07;0.52;;;0.40;;
65998;SDS011;52766;56.008;37.440;2022-11-03T04:24:06;0.98;;;0.88;;
65998;SDS011;52766;56.008;37.440;2022-11-03T04:26:32;0.82;;;0.55;;
65998;SDS011;52766;56.008;37.440;2022-11-03T04:28:59;0.95;;;0.65;;
65998;SDS011;52766;56.008;37.440;2022-11-03T04:31:28;0.80;;;0.77;;
65998;SDS011;52766;56.008;37.440;2022-11-03T04:33:57;1.83;;;0.88;;
65998;SDS011;52766;56.008;37.440;2022-11-03T04:36:25;0.88;;;0.65;;
65998;SDS011;52766;56.008;37.440;2022-11-03T04:38:53;1.40;;;0.93;;
65998;SDS011;52766;56.008;37.440;2022-11-03T04:41:28;1.13;;;0.63;;
65998;SDS011;52766;56.008;37.440;2022-11-03T04:43:56;0.60;;;0.50;;
65998;SDS011;52766;56.008;37.440;2022-11-03T04:46:28;0.55;;;0.40;;
65998;SDS011;52766;56.008;37.440;2022-11-03T04:48:57;3.70;;;1.25;;
65998;SDS011;52766;56.008;37.440;2022-11-03T04:51:36;2.05;;;0.50;;
65998;SDS011;52766;56.008;37.440;2022-11-03T04:54:13;3.83;;;0.40;;
65998;SDS011;52766;56.008;37.440;2022-11-03T04:56:41;6.97;;;1.60;;
65998;SDS011;52766;56.008;37.440;2022-11-03T04:59:15;1.35;;;0.70;;
65998;SDS011;52766;56.008;37.440;2022-11-03T05:01:44;0.82;;;0.75;;
65998;SDS011;52766;56.008;37.440;2022-11-03T05:04:12;1.65;;;0.90;;
65998;SDS011;52766;56.008;37.440;2022-11-03T05:06:43;1.65;;;1.02;;
65998;SDS011;52766;56.008;37.440;2022-11-03T05:09:25;2.70;;;1.10;;
65998;SDS011;52766;56.008;37.440;2022-11-03T05:11:55;1.40;;;0.82;;
65998;SDS011;52766;56.008;37.440;2022-11-03T05:14:22;1.88;;;1.00;;
65998;SDS011;52766;56.008;37.440;2022-11-03T05:16:56;2.80;;;1.25;;
65998;SDS011;52766;56.008;37.440;2022-11-03T05:19:26;1.23;;;0.90;;
65998;SDS011;52766;56.008;37.440;2022-11-03T05:22:02;2.95;;;1.10;;
65998;SDS011;52766;56.008;37.440;2022-11-03T05:24:36;3.95;;;1.10;;
65998;SDS011;52766;56.008;37.440;2022-11-03T05:27:15;2.22;;;0.98;;
65998;SDS011;52766;56.008;37.440;2022-11-03T05:29:48;0.80;;;0.60;;
65998;SDS011;52766;56.008;37.440;2022-11-03T05:32:22;0.88;;;0.57;;
65998;SDS011;52766;56.008;37.440;2022-11-03T05:34:53;0.82;;;0.80;;
65998;SDS011;52766;56.008;37.440;2022-11-03T05:37:24;2.28;;;0.75;;
65998;SDS011;52766;56.008;37.440;2022-11-03T05:39:52;2.72;;;0.85;;
65998;SDS011;52766;56.008;37.440;2022-11-03T05:42:38;0.65;;;0.47;;
65998;SDS011;52766;56.008;37.440;2022-11-03T05:45:23;0.98;;;0.60;;
65998;SDS011;52766;56.008;37.440;2022-11-03T05:48:33;1.55;;;0.82;;
65998;SDS011;52766;56.008;37.440;2022-11-03T05:54:36;2.92;;;1.25;;
65998;SDS011;52766;56.008;37.440;2022-11-03T05:57:10;2.65;;;1.40;;
65998;SDS011;52766;56.008;37.440;2022-11-03T05:59:42;2.20;;;1.20;;
65998;SDS011;52766;56.008;37.440;2022-11-03T06:05:39;0.77;;;0.77;;
65998;SDS011;52766;56.008;37.440;2022-11-03T06:08:18;0.50;;;0.50;;
65998;SDS011;52766;56.008;37.440;2022-11-03T06:15:52;2.30;;;1.20;;
65998;SDS011;52766;56.008;37.440;2022-11-03T06:18:23;2.72;;;1.17;;
65998;SDS011;52766;56.008;37.440;2022-11-03T06:23:23;2.55;;;1.30;;
65998;SDS011;52766;56.008;37.440;2022-11-03T06:25:51;1.73;;;0.90;;
65998;SDS011;52766;56.008;37.440;2022-11-03T06:28:24;1.05;;;0.60;;
65998;SDS011;52766;56.008;37.440;2022-11-03T06:30:54;1.63;;;0.50;;
65998;SDS011;52766;56.008;37.440;2022-11-03T06:33:26;0.60;;;0.60;;
65998;SDS011;52766;56.008;37.440;2022-11-03T06:36:50;1.08;;;0.65;;
65998;SDS011;52766;56.008;37.440;2022-11-03T06:39:21;1.75;;;0.50;;
65998;SDS011;52766;56.008;37.440;2022-11-03T06:41:52;1.10;;;0.50;;
65998;SDS011;52766;56.008;37.440;2022-11-03T06:44:26;2.00;;;1.00;;
65998;SDS011;52766;56.008;37.440;2022-11-03T06:46:55;2.35;;;0.80;;
65998;SDS011;52766;56.008;37.440;2022-11-03T06:49:26;0.73;;;0.50;;
65998;SDS011;52766;56.008;37.440;2022-11-03T06:52:19;1.83;;;0.77;;
65998;SDS011;52766;56.008;37.440;2022-11-03T07:01:51;4.97;;;1.10;;
65998;SDS011;52766;56.008;37.440;2022-11-03T07:11:10;2.20;;;1.05;;
65998;SDS011;52766;56.008;37.440;2022-11-03T07:17:15;2.55;;;1.20;;
65998;SDS011;52766;56.008;37.440;2022-11-03T07:19:51;1.58;;;0.90;;
65998;SDS011;52766;56.008;37.440;2022-11-03T07:28:34;1.50;;;0.90;;
65998;SDS011;52766;56.008;37.440;2022-11-03T07:31:15;1.90;;;1.00;;
65998;SDS011;52766;56.008;37.440;2022-11-03T07:34:04;1.20;;;0.75;;
65998;SDS011;52766;56.008;37.440;2022-11-03T07:36:43;2.38;;;1.05;;
65998;SDS011;52766;56.008;37.440;2022-11-03T07:39:22;2.20;;;1.00;;
65998;SDS011;52766;56.008;37.440;2022-11-03T07:41:56;7.95;;;1.35;;
65998;SDS011;52766;56.008;37.440;2022-11-03T07:48:19;1.48;;;1.00;;
65998;SDS011;52766;56.008;37.440;2022-11-03T07:54:29;4.90;;;1.35;;
65998;SDS011;52766;56.008;37.440;2022-11-03T07:57:22;4.40;;;1.20;;
65998;SDS011;52766;56.008;37.440;2022-11-03T08:03:12;1.77;;;1.13;;
65998;SDS011;52766;56.008;37.440;2022-11-03T08:09:51;2.15;;;0.90;;
65998;SDS011;52766;56.008;37.440;2022-11-03T08:12:30;1.67;;;1.00;;
65998;SDS011;52766;56.008;37.440;2022-11-03T08:15:02;2.33;;;1.08;;
65998;SDS011;52766;56.008;37.440;2022-11-03T08:17:41;3.47;;;1.45;;
65998;SDS011;52766;56.008;37.440;2022-11-03T08:20:34;3.55;;;1.60;;
65998;SDS011;52766;56.008;37.440;2022-11-03T08:29:43;2.35;;;1.13;;
65998;SDS011;52766;56.008;37.440;2022-11-03T08:35:21;2.63;;;1.15;;
65998;SDS011;52766;56.008;37.440;2022-11-03T08:45:23;2.45;;;1.63;;
65998;SDS011;52766;56.008;37.440;2022-11-03T08:47:56;1.98;;;1.17;;
65998;SDS011;52766;56.008;37.440;2022-11-03T08:50:36;4.05;;;1.20;;
65998;SDS011;52766;56.008;37.440;2022-11-03T08:53:39;2.88;;;1.65;;
65998;SDS011;52766;56.008;37.440;2022-11-03T08:56:10;3.65;;;1.73;;
65998;SDS011;52766;56.008;37.440;2022-11-03T08:58:47;2.88;;;1.40;;
65998;SDS011;52766;56.008;37.440;2022-11-03T09:01:37;6.32;;;2.17;;
65998;SDS011;52766;56.008;37.440;2022-11-03T09:04:14;4.88;;;2.17;;
65998;SDS011;52766;56.008;37.440;2022-11-03T09:07:20;4.40;;;2.00;;
65998;SDS011;52766;56.008;37.440;2022-11-03T09:17:15;6.28;;;2.80;;
65998;SDS011;52766;56.008;37.440;2022-11-03T09:23:24;4.82;;;1.88;;
65998;SDS011;52766;56.008;37.440;2022-11-03T09:26:13;3.42;;;1.45;;
65998;SDS011;52766;56.008;37.440;2022-11-03T09:28:57;4.70;;;2.45;;
65998;SDS011;52766;56.008;37.440;2022-11-03T09:31:30;3.17;;;1.48;;
65998;SDS011;52766;56.008;37.440;2022-11-03T09:34:03;2.80;;;1.83;;
65998;SDS011;52766;56.008;37.440;2022-11-03T09:36:47;6.05;;;2.00;;
65998;SDS011;52766;56.008;37.440;2022-11-03T09:43:01;7.13;;;2.30;;
65998;SDS011;52766;56.008;37.440;2022-11-03T09:45:32;4.50;;;2.15;;
65998;SDS011;52766;56.008;37.440;2022-11-03T09:48:10;4.60;;;2.53;;
65998;SDS011;52766;56.008;37.440;2022-11-03T09:50:42;5.05;;;2.22;;
65998;SDS011;52766;56.008;37.440;2022-11-03T09:53:14;3.90;;;2.03;;
65998;SDS011;52766;56.008;37.440;2022-11-03T09:56:10;5.38;;;2.13;;
65998;SDS011;52766;56.008;37.440;2022-11-03T09:58:59;9.88;;;3.35;;
65998;SDS011;52766;56.008;37.440;2022-11-03T10:01:26;7.88;;;3.20;;
65998;SDS011;52766;56.008;37.440;2022-11-03T10:03:58;8.73;;;4.10;;
65998;SDS011;52766;56.008;37.440;2022-11-03T10:13:20;9.10;;;2.25;;
65998;SDS011;52766;56.008;37.440;2022-11-03T10:20:04;5.35;;;2.55;;
65998;SDS011;52766;56.008;37.440;2022-11-03T10:25:43;6.90;;;2.67;;
65998;SDS011;52766;56.008;37.440;2022-11-03T10:28:24;4.78;;;2.60;;
65998;SDS011;52766;56.008;37.440;2022-11-03T10:30:56;7.18;;;3.50;;
65998;SDS011;52766;56.008;37.440;2022-11-03T10:37:28;8.65;;;3.72;;
65998;SDS011;52766;56.008;37.440;2022-11-03T10:42:34;9.23;;;4.32;;
65998;SDS011;52766;56.008;37.440;2022-11-03T10:45:19;4.97;;;2.42;;
65998;SDS011;52766;56.008;37.440;2022-11-03T10:47:59;7.50;;;3.75;;
65998;SDS011;52766;56.008;37.440;2022-11-03T10:50:41;8.95;;;3.78;;
65998;SDS011;52766;56.008;37.440;2022-11-03T10:53:27;12.77;;;4.78;;
65998;SDS011;52766;56.008;37.440;2022-11-03T10:55:54;8.15;;;4.07;;
65998;SDS011;52766;56.008;37.440;2022-11-03T10:58:28;6.07;;;2.88;;
65998;SDS011;52766;56.008;37.440;2022-11-03T11:04:16;9.88;;;3.45;;
65998;SDS011;52766;56.008;37.440;2022-11-03T11:06:54;4.18;;;2.50;;
65998;SDS011;52766;56.008;37.440;2022-11-03T11:16:45;6.00;;;2.63;;
65998;SDS011;52766;56.008;37.440;2022-11-03T11:23:45;4.90;;;2.67;;
65998;SDS011;52766;56.008;37.440;2022-11-03T11:44:56;6.32;;;2.08;;
65998;SDS011;52766;56.008;37.440;2022-11-03T11:52:11;2.90;;;1.50;;
65998;SDS011;52766;56.008;37.440;2022-11-03T11:59:13;4.65;;;2.00;;
65998;SDS011;52766;56.008;37.440;2022-11-03T12:02:32;7.53;;;2.30;;
65998;SDS011;52766;56.008;37.440;2022-11-03T12:05:36;4.30;;;2.08;;
65998;SDS011;52766;56.008;37.440;2022-11-03T12:08:18;8.18;;;2.67;;
65998;SDS011;52766;56.008;37.440;2022-11-03T12:14:42;3.15;;;1.45;;
65998;SDS011;52766;56.008;37.440;2022-11-03T12:23:51;3.13;;;1.25;;
65998;SDS011;52766;56.008;37.440;2022-11-03T12:28:03;4.00;;;1.70;;
65998;SDS011;52766;56.008;37.440;2022-11-03T12:31:02;3.55;;;1.70;;
65998;SDS011;52766;56.008;37.440;2022-11-03T13:03:34;4.18;;;2.03;;
65998;SDS011;52766;56.008;37.440;2022-11-03T13:06:15;6.25;;;1.90;;
65998;SDS011;52766;56.008;37.440;2022-11-03T13:10:31;2.78;;;1.52;;
65998;SDS011;52766;56.008;37.440;2022-11-03T13:25:21;4.95;;;1.50;;
65998;SDS011;52766;56.008;37.440;2022-11-03T13:41:19;6.05;;;2.38;;
65998;SDS011;52766;56.008;37.440;2022-11-03T13:43:51;6.13;;;2.47;;
65998;SDS011;52766;56.008;37.440;2022-11-03T13:47:04;5.03;;;2.20;;
65998;SDS011;52766;56.008;37.440;2022-11-03T13:49:43;4.93;;;2.30;;
65998;SDS011;52766;56.008;37.440;2022-11-03T13:56:16;7.82;;;2.75;;
65998;SDS011;52766;56.008;37.440;2022-11-03T13:59:37;7.88;;;2.95;;
65998;SDS011;52766;56.008;37.440;2022-11-03T14:05:34;13.20;;;3.10;;
65998;SDS011;52766;56.008;37.440;2022-11-03T14:08:21;5.38;;;2.45;;
65998;SDS011;52766;56.008;37.440;2022-11-03T14:11:30;5.53;;;2.50;;
65998;SDS011;52766;56.008;37.440;2022-11-03T14:25:11;3.70;;;1.75;;
65998;SDS011;52766;56.008;37.440;2022-11-03T14:34:28;12.70;;;4.57;;
65998;SDS011;52766;56.008;37.440;2022-11-03T15:26:07;4.43;;;1.95;;
65998;SDS011;52766;56.008;37.440;2022-11-03T15:35:14;12.20;;;2.80;;
65998;SDS011;52766;56.008;37.440;2022-11-03T15:37:49;3.70;;;1.52;;
65998;SDS011;52766;56.008;37.440;2022-11-03T15:40:22;4.20;;;1.95;;
65998;SDS011;52766;56.008;37.440;2022-11-03T15:43:03;5.43;;;2.03;;
65998;SDS011;52766;56.008;37.440;2022-11-03T15:53:00;3.97;;;2.10;;
65998;SDS011;52766;56.008;37.440;2022-11-03T15:55:28;5.40;;;2.38;;
65998;SDS011;52766;56.008;37.440;2022-11-03T15:57:54;6.35;;;2.72;;
65998;SDS011;52766;56.008;37.440;2022-11-03T16:00:26;7.25;;;3.05;;
65998;SDS011;52766;56.008;37.440;2022-11-03T16:02:58;8.50;;;3.88;;
65998;SDS011;52766;56.008;37.440;2022-11-03T16:05:25;5.78;;;2.17;;
65998;SDS011;52766;56.008;37.440;2022-11-03T16:11:38;3.25;;;1.98;;
65998;SDS011;52766;56.008;37.440;2022-11-03T16:14:36;6.75;;;2.05;;
65998;SDS011;52766;56.008;37.440;2022-11-03T16:20:49;4.90;;;1.70;;
65998;SDS011;52766;56.008;37.440;2022-11-03T16:23:23;7.65;;;3.05;;
65998;SDS011;52766;56.008;37.440;2022-11-03T16:30:38;6.18;;;1.95;;
65998;SDS011;52766;56.008;37.440;2022-11-03T16:34:39;4.90;;;2.30;;
65998;SDS011;52766;56.008;37.440;2022-11-03T16:38:31;10.85;;;2.63;;
65998;SDS011;52766;56.008;37.440;2022-11-03T16:42:09;3.78;;;1.65;;
65998;SDS011;52766;56.008;37.440;2022-11-03T16:45:49;9.25;;;3.42;;
65998;SDS011;52766;56.008;37.440;2022-11-03T16:48:41;2.95;;;1.05;;
65998;SDS011;52766;56.008;37.440;2022-11-03T16:51:37;3.95;;;1.67;;
65998;SDS011;52766;56.008;37.440;2022-11-03T16:54:31;5.32;;;2.92;;
65998;SDS011;52766;56.008;37.440;2022-11-03T16:57:06;7.82;;;2.75;;
65998;SDS011;52766;56.008;37.440;2022-11-03T17:00:12;3.50;;;1.23;;
65998;SDS011;52766;56.008;37.440;2022-11-03T17:03:05;6.13;;;2.60;;
65998;SDS011;52766;56.008;37.440;2022-11-03T17:05:57;3.20;;;1.30;;
65998;SDS011;52766;56.008;37.440;2022-11-03T17:08:39;8.55;;;3.72;;
65998;SDS011;52766;56.008;37.440;2022-11-03T17:11:12;8.40;;;3.15;;
65998;SDS011;52766;56.008;37.440;2022-11-03T17:14:07;8.18;;;3.38;;
65998;SDS011;52766;56.008;37.440;2022-11-03T17:17:33;6.20;;;2.65;;
65998;SDS011;52766;56.008;37.440;2022-11-03T17:20:54;8.48;;;3.50;;
65998;SDS011;52766;56.008;37.440;2022-11-03T17:23:47;5.00;;;1.67;;
65998;SDS011;52766;56.008;37.440;2022-11-03T17:27:51;6.15;;;2.45;;
65998;SDS011;52766;56.008;37.440;2022-11-03T17:30:57;2.95;;;1.55;;
65998;SDS011;52766;56.008;37.440;2022-11-03T17:33:40;5.03;;;2.50;;
65998;SDS011;52766;56.008;37.440;2022-11-03T17:36:08;7.50;;;2.15;;
65998;SDS011;52766;56.008;37.440;2022-11-03T17:38:36;5.47;;;2.10;;
65998;SDS011;52766;56.008;37.440;2022-11-03T17:41:03;8.70;;;3.45;;
65998;SDS011;52766;56.008;37.440;2022-11-03T17:43:31;5.88;;;2.80;;
65998;SDS011;52766;56.008;37.440;2022-11-03T17:46:05;8.38;;;3.28;;
65998;SDS011;52766;56.008;37.440;2022-11-03T17:48:35;7.85;;;3.60;;
65998;SDS011;52766;56.008;37.440;2022-11-03T17:51:09;7.18;;;3.33;;
65998;SDS011;52766;56.008;37.440;2022-11-03T17:53:50;9.13;;;3.40;;
65998;SDS011;52766;56.008;37.440;2022-11-03T17:56:45;10.10;;;4.10;;
65998;SDS011;52766;56.008;37.440;2022-11-03T17:59:14;6.60;;;3.10;;
65998;SDS011;52766;56.008;37.440;2022-11-03T18:01:46;5.95;;;2.47;;
65998;SDS011;52766;56.008;37.440;2022-11-03T18:04:22;10.60;;;5.00;;
65998;SDS011;52766;56.008;37.440;2022-11-03T18:07:07;7.32;;;3.55;;
65998;SDS011;52766;56.008;37.440;2022-11-03T18:10:01;7.13;;;2.95;;
65998;SDS011;52766;56.008;37.440;2022-11-03T18:24:31;6.15;;;2.53;;
65998;SDS011;52766;56.008;37.440;2022-11-03T18:27:15;4.03;;;1.77;;
65998;SDS011;52766;56.008;37.440;2022-11-03T18:42:03;7.10;;;2.78;;
65998;SDS011;52766;56.008;37.440;2022-11-03T18:45:12;8.50;;;4.35;;
65998;SDS011;52766;56.008;37.440;2022-11-03T18:50:53;7.80;;;3.22;;
65998;SDS011;52766;56.008;37.440;2022-11-03T18:57:24;11.10;;;5.15;;
65998;SDS011;52766;56.008;37.440;2022-11-03T19:00:21;11.00;;;4.10;;
65998;SDS011;52766;56.008;37.440;2022-11-03T19:02:54;17.67;;;4.82;;
65998;SDS011;52766;56.008;37.440;2022-11-03T19:05:26;9.93;;;4.88;;
65998;SDS011;52766;56.008;37.440;2022-11-03T19:08:02;13.93;;;5.40;;
65998;SDS011;52766;56.008;37.440;2022-11-03T19:10:52;14.15;;;5.05;;
65998;SDS011;52766;56.008;37.440;2022-11-03T19:16:39;7.82;;;4.10;;
65998;SDS011;52766;56.008;37.440;2022-11-03T19:19:29;14.48;;;4.60;;
65998;SDS011;52766;56.008;37.440;2022-11-03T19:22:12;15.98;;;4.22;;
65998;SDS011;52766;56.008;37.440;2022-11-03T19:25:17;14.48;;;3.97;;
65998;SDS011;52766;56.008;37.440;2022-11-03T19:27:51;9.82;;;3.88;;
65998;SDS011;52766;56.008;37.440;2022-11-03T19:35:03;12.38;;;5.38;;
65998;SDS011;52766;56.008;37.440;2022-11-03T19:37:59;7.32;;;3.10;;
65998;SDS011;52766;56.008;37.440;2022-11-03T19:44:39;10.68;;;4.60;;
65998;SDS011;52766;56.008;37.440;2022-11-03T19:47:20;5.18;;;2.35;;
65998;SDS011;52766;56.008;37.440;2022-11-03T19:50:04;10.95;;;4.72;;
65998;SDS011;52766;56.008;37.440;2022-11-03T19:56:30;8.73;;;3.50;;
65998;SDS011;52766;56.008;37.440;2022-11-03T19:59:25;9.98;;;3.95;;
65998;SDS011;52766;56.008;37.440;2022-11-03T20:02:14;12.80;;;4.28;;
65998;SDS011;52766;56.008;37.440;2022-11-03T20:04:54;7.03;;;2.20;;
65998;SDS011;52766;56.008;37.440;2022-11-03T20:07:39;9.18;;;3.40;;
65998;SDS011;52766;56.008;37.440;2022-11-03T20:10:28;8.65;;;4.22;;
65998;SDS011;52766;56.008;37.440;2022-11-03T20:13:29;4.65;;;2.33;;
65998;SDS011;52766;56.008;37.440;2022-11-03T20:16:49;10.75;;;4.05;;
65998;SDS011;52766;56.008;37.440;2022-11-03T20:21:53;8.68;;;3.67;;
65998;SDS011;52766;56.008;37.440;2022-11-03T20:24:21;13.68;;;6.53;;
65998;SDS011;52766;56.008;37.440;2022-11-03T20:26:56;13.27;;;4.82;;
65998;SDS011;52766;56.008;37.440;2022-11-03T20:29:39;13.15;;;5.05;;
65998;SDS011;52766;56.008;37.440;2022-11-03T20:32:16;7.07;;;3.33;;
65998;SDS011;52766;56.008;37.440;2022-11-03T20:34:56;10.30;;;4.57;;
65998;SDS011;52766;56.008;37.440;2022-11-03T20:37:31;11.40;;;4.32;;
65998;SDS011;52766;56.008;37.440;2022-11-03T20:40:31;9.48;;;3.90;;
65998;SDS011;52766;56.008;37.440;2022-11-03T20:43:01;10.07;;;4.65;;
65998;SDS011;52766;56.008;37.440;2022-11-03T20:45:41;11.20;;;3.70;;
65998;SDS011;52766;56.008;37.440;2022-11-03T20:48:38;13.88;;;5.85;;
65998;SDS011;52766;56.008;37.440;2022-11-03T20:51:31;8.25;;;3.53;;
65998;SDS011;52766;56.008;37.440;2022-11-03T20:57:18;10.07;;;3.40;;
65998;SDS011;52766;56.008;37.440;2022-11-03T21:02:53;14.48;;;6.45;;
65998;SDS011;52766;56.008;37.440;2022-11-03T21:05:32;10.77;;;4.82;;
65998;SDS011;52766;56.008;37.440;2022-11-03T21:08:07;8.80;;;3.42;;
65998;SDS011;52766;56.008;37.440;2022-11-03T21:17:29;5.47;;;2.05;;
65998;SDS011;52766;56.008;37.440;2022-11-03T21:20:25;8.15;;;4.28;;
65998;SDS011;52766;56.008;37.440;2022-11-03T21:22:53;7.57;;;2.97;;
65998;SDS011;52766;56.008;37.440;2022-11-03T21:25:30;8.32;;;4.13;;
65998;SDS011;52766;56.008;37.440;2022-11-03T21:28:01;13.63;;;5.32;;
65998;SDS011;52766;56.008;37.440;2022-11-03T21:30:32;16.48;;;6.30;;
65998;SDS011;52766;56.008;37.440;2022-11-03T21:33:02;17.55;;;5.53;;
65998;SDS011;52766;56.008;37.440;2022-11-03T21:35:28;13.27;;;5.32;;
65998;SDS011;52766;56.008;37.440;2022-11-03T21:37:56;14.10;;;5.28;;
65998;SDS011;52766;56.008;37.440;2022-11-03T21:40:27;13.43;;;5.30;;
65998;SDS011;52766;56.008;37.440;2022-11-03T21:42:59;14.18;;;5.63;;
65998;SDS011;52766;56.008;37.440;2022-11-03T21:45:46;12.50;;;4.75;;
65998;SDS011;52766;56.008;37.440;2022-11-03T21:48:53;14.80;;;5.70;;
65998;SDS011;52766;56.008;37.440;2022-11-03T21:51:44;15.93;;;6.03;;
65998;SDS011;52766;56.008;37.440;2022-11-03T21:54:14;15.02;;;5.35;;
65998;SDS011;52766;56.008;37.440;2022-11-03T21:56:41;13.32;;;5.18;;
65998;SDS011;52766;56.008;37.440;2022-11-03T21:59:08;16.15;;;5.93;;
65998;SDS011;52766;56.008;37.440;2022-11-03T22:01:40;12.27;;;5.60;;
65998;SDS011;52766;56.008;37.440;2022-11-03T22:04:11;11.48;;;3.67;;
65998;SDS011;52766;56.008;37.440;2022-11-03T22:06:41;11.70;;;4.82;;
65998;SDS011;52766;56.008;37.440;2022-11-03T22:09:09;15.70;;;5.85;;
65998;SDS011;52766;56.008;37.440;2022-11-03T22:11:45;8.13;;;3.58;;
65998;SDS011;52766;56.008;37.440;2022-11-03T22:14:17;16.35;;;5.88;;